createdAt,value
2022-11-07T17:01:39.716Z,4.40
2022-11-07T17:03:12.260Z,7.00
2022-11-07T17:04:43.965Z,8.00
2022-11-07T17:06:25.818Z,8.00
2022-11-07T17:07:57.482Z,7.00
2022-11-07T17:09:29.149Z,6.20
2022-11-07T17:11:00.820Z,6.60
2022-11-07T17:12:32.712Z,6.80
2022-11-07T17:14:04.380Z,6.00
2022-11-07T17:15:36.589Z,6.40
2022-11-07T17:17:08.486Z,8.00
2022-11-07T17:18:40.218Z,7.00
2022-11-07T17:20:49.110Z,8.00
2022-11-07T17:22:13.725Z,9.20
2022-11-07T17:23:45.417Z,7.00
2022-11-07T17:25:17.315Z,7.80
2022-11-07T17:26:49.017Z,9.00
2022-11-07T17:28:21.462Z,7.00
2022-11-07T17:29:53.454Z,4.00
2022-11-07T17:31:25.170Z,9.00
2022-11-07T17:32:56.952Z,8.20
2022-11-07T17:34:28.676Z,8.40
2022-11-07T17:36:00.433Z,7.00
2022-11-07T17:37:32.133Z,8.40
2022-11-07T17:39:08.021Z,8.20
2022-11-07T17:40:39.755Z,8.60
2022-11-07T17:42:12.429Z,9.60
2022-11-07T17:43:44.923Z,10.20
2022-11-07T17:45:16.858Z,10.60
2022-11-07T17:46:49.186Z,7.00
2022-11-07T17:48:20.915Z,10.00
2022-11-07T17:49:52.668Z,7.80
2022-11-07T17:51:26.703Z,7.20
2022-11-07T17:52:58.441Z,8.80
2022-11-07T17:54:30.195Z,7.60
2022-11-07T17:56:01.928Z,9.20
2022-11-07T17:57:33.716Z,8.00
2022-11-07T17:59:07.387Z,9.00
2022-11-07T18:00:39.085Z,9.20
2022-11-07T18:02:18.143Z,8.60
2022-11-07T18:03:50.559Z,9.80
2022-11-07T18:05:22.631Z,9.00
2022-11-07T18:06:54.397Z,8.00
2022-11-07T18:08:50.754Z,11.20
2022-11-07T18:10:17.983Z,11.00
2022-11-07T18:11:49.679Z,11.00
2022-11-07T18:13:21.418Z,9.60
2022-11-07T18:14:53.125Z,8.00
2022-11-07T18:16:26.625Z,10.40
2022-11-07T18:17:58.368Z,10.00
2022-11-07T18:19:30.217Z,10.80
2022-11-07T18:21:02.773Z,11.60
2022-11-07T18:22:35.247Z,10.40
2022-11-07T18:24:07.150Z,11.20
2022-11-07T18:25:38.841Z,9.80
2022-11-07T18:27:10.927Z,14.20
2022-11-07T18:28:43.091Z,25.60
2022-11-07T18:30:14.883Z,27.20
2022-11-07T18:31:50.598Z,33.20
2022-11-07T18:33:22.333Z,35.20
2022-11-07T18:34:54.092Z,35.75
2022-11-07T18:36:25.877Z,40.75
2022-11-07T18:37:57.585Z,50.50
2022-11-07T18:39:29.365Z,46.50
2022-11-07T18:41:07.469Z,57.75
2022-11-07T18:42:42.824Z,62.00
2022-11-07T18:44:14.830Z,63.00
2022-11-07T18:45:46.536Z,60.50
2022-11-07T18:47:18.269Z,65.75
2022-11-07T18:48:50.852Z,72.50
2022-11-07T18:50:22.630Z,69.40
2022-11-07T18:51:54.399Z,77.20
2022-11-07T18:53:26.504Z,81.00
2022-11-07T18:54:58.546Z,80.25
2022-11-07T18:56:30.354Z,83.50
2022-11-07T18:58:01.989Z,74.50
2022-11-07T18:59:34.333Z,89.25
2022-11-07T19:01:13.206Z,83.00
2022-11-07T19:02:44.963Z,85.50
2022-11-07T19:04:16.652Z,90.25
2022-11-07T19:05:48.564Z,87.00
2022-11-07T19:07:20.261Z,98.50
2022-11-07T19:08:52.101Z,100.00
2022-11-07T19:10:23.880Z,106.00
2022-11-07T19:11:56.613Z,111.50
2022-11-07T19:13:28.601Z,115.00
2022-11-07T19:15:00.295Z,109.25
2022-11-07T19:16:32.262Z,115.00
2022-11-07T19:18:04.174Z,120.75
2022-11-07T19:19:36.450Z,113.25
2022-11-07T19:21:08.613Z,125.00
2022-11-07T19:22:40.580Z,122.00
2022-11-07T19:24:13.186Z,123.75
2022-11-07T19:25:44.907Z,125.75
2022-11-07T19:27:16.913Z,129.50
2022-11-07T19:28:48.863Z,124.00
2022-11-07T19:30:20.706Z,135.00
2022-11-07T19:31:52.452Z,124.75
2022-11-07T19:33:24.180Z,130.00
2022-11-07T19:34:55.890Z,131.00
2022-11-07T19:36:27.640Z,129.75
2022-11-07T19:37:59.416Z,126.67
2022-11-07T19:39:36.754Z,203.75
2022-11-07T19:41:08.559Z,213.50
2022-11-07T19:42:40.298Z,197.00
2022-11-07T19:44:12.074Z,169.25
2022-11-07T19:45:44.210Z,148.67
2022-11-07T19:47:15.916Z,147.67
2022-11-07T19:48:48.145Z,145.67
2022-11-07T19:50:20.205Z,135.33
2022-11-07T19:51:52.481Z,126.67
2022-11-07T19:53:24.293Z,122.25
2022-11-07T19:54:56.115Z,128.75
2022-11-07T19:56:30.468Z,113.00
2022-11-07T19:58:02.159Z,118.50
2022-11-07T19:59:33.916Z,117.00
2022-11-07T20:01:12.898Z,126.50
2022-11-07T20:02:47.998Z,124.25
2022-11-07T20:04:20.619Z,131.00
2022-11-07T20:05:52.356Z,124.00
2022-11-07T20:07:24.074Z,125.75
2022-11-07T20:08:55.892Z,122.75
2022-11-07T20:10:27.699Z,127.00
2022-11-07T20:11:59.440Z,123.25
2022-11-07T20:13:31.173Z,124.25
2022-11-07T20:15:02.908Z,123.75
2022-11-07T20:16:35.046Z,121.75
2022-11-07T20:18:06.731Z,128.50
2022-11-07T20:19:38.597Z,122.50
2022-11-07T20:21:15.934Z,128.00
2022-11-07T20:22:48.939Z,127.33
2022-11-07T20:24:20.658Z,135.33
2022-11-07T20:25:52.438Z,131.33
2022-11-07T20:27:24.756Z,141.33
2022-11-07T20:28:56.607Z,136.33
2022-11-07T20:30:28.391Z,143.67
2022-11-07T20:32:00.135Z,155.00
2022-11-07T20:33:31.888Z,175.00
2022-11-07T20:35:04.004Z,159.00
2022-11-07T20:36:35.842Z,160.33
2022-11-07T20:38:07.579Z,152.50
2022-11-07T20:39:42.523Z,161.00
2022-11-07T20:41:14.337Z,159.00
2022-11-07T20:42:46.038Z,152.67
2022-11-07T20:44:17.757Z,158.33
2022-11-07T20:45:49.542Z,159.00
2022-11-07T20:47:21.638Z,153.33
2022-11-07T20:48:54.286Z,157.67
2022-11-07T20:50:26.040Z,165.25
2022-11-07T20:51:58.421Z,158.33
2022-11-07T20:53:30.040Z,168.75
2022-11-07T20:55:02.170Z,164.00
2022-11-07T20:56:33.962Z,166.50
2022-11-07T20:58:05.785Z,166.25
2022-11-07T20:59:37.717Z,163.50
2022-11-07T21:01:13.642Z,159.25
2022-11-07T21:02:45.449Z,153.67
2022-11-07T21:04:17.166Z,159.33
2022-11-07T21:05:50.957Z,156.67
2022-11-07T21:07:25.157Z,160.00
2022-11-07T21:08:57.042Z,151.00
2022-11-07T21:10:29.006Z,148.67
2022-11-07T21:12:01.314Z,147.00
2022-11-07T21:13:33.557Z,157.33
2022-11-07T21:15:05.935Z,152.00
2022-11-07T21:16:37.625Z,149.67
2022-11-07T21:18:10.209Z,145.33
2022-11-07T21:19:41.912Z,151.00
2022-11-07T21:21:20.276Z,144.67
2022-11-07T21:22:52.080Z,143.67
2022-11-07T21:24:23.800Z,149.00
2022-11-07T21:25:55.713Z,144.33
2022-11-07T21:27:27.417Z,252.00
2022-11-07T21:28:59.379Z,279.60
2022-11-07T21:30:31.106Z,188.75
2022-11-07T21:32:02.987Z,184.50
2022-11-07T21:33:34.691Z,183.50
2022-11-07T21:35:06.881Z,173.25
2022-11-07T21:36:38.674Z,156.75
2022-11-07T21:38:10.378Z,154.75
2022-11-07T21:39:42.103Z,164.50
2022-11-07T21:41:14.253Z,161.67
2022-11-07T21:42:46.016Z,144.67
2022-11-07T21:44:17.789Z,149.00
2022-11-07T21:45:49.529Z,152.67
2022-11-07T21:47:21.340Z,144.67
2022-11-07T21:48:54.708Z,143.00
2022-11-07T21:52:18.354Z,146.00
2022-11-07T21:53:50.246Z,142.67
2022-11-07T21:55:22.877Z,141.33
2022-11-07T21:56:54.562Z,135.33
2022-11-07T21:58:27.058Z,136.67
2022-11-07T21:59:58.815Z,131.67
2022-11-07T22:01:34.803Z,132.00
2022-11-07T22:03:06.995Z,132.33
2022-11-07T22:04:38.680Z,133.00
2022-11-07T22:06:10.459Z,129.33
2022-11-07T22:07:42.194Z,128.50
2022-11-07T22:09:15.706Z,120.25
2022-11-07T22:10:47.456Z,122.00
2022-11-07T22:12:19.132Z,126.25
2022-11-07T22:13:50.904Z,118.00
2022-11-07T22:15:22.610Z,123.50
2022-11-07T22:16:54.945Z,115.75
2022-11-07T22:18:26.631Z,110.00
2022-11-07T22:19:58.344Z,107.75
2022-11-07T22:21:31.491Z,112.75
2022-11-07T22:23:03.223Z,103.75
2022-11-07T22:24:35.045Z,123.00
2022-11-07T22:26:17.472Z,109.50
2022-11-07T22:27:49.274Z,213.00
2022-11-07T22:29:20.995Z,154.33
2022-11-07T22:30:52.736Z,145.00
2022-11-07T22:32:24.369Z,144.00
2022-11-07T22:33:56.465Z,137.67
2022-11-07T22:35:28.260Z,127.00
2022-11-07T22:36:59.926Z,128.25
2022-11-07T22:38:35.149Z,114.50
2022-11-07T22:40:07.734Z,128.75
2022-11-07T22:41:39.401Z,115.00
2022-11-07T22:43:11.260Z,110.25
2022-11-07T22:44:42.937Z,117.75
2022-11-07T22:46:16.654Z,114.25
2022-11-07T22:47:48.656Z,116.25
2022-11-07T22:49:20.450Z,112.75
2022-11-07T22:50:52.227Z,110.25
2022-11-07T22:52:23.943Z,115.00
2022-11-07T22:53:57.167Z,114.25
2022-11-07T22:55:30.422Z,107.75
2022-11-07T22:57:02.119Z,110.00
2022-11-07T22:58:33.939Z,107.25
2022-11-07T23:00:20.866Z,112.00
2022-11-07T23:01:53.734Z,103.50
2022-11-07T23:03:25.420Z,104.75
2022-11-07T23:04:57.103Z,107.50
2022-11-07T23:06:29.159Z,99.00
2022-11-07T23:08:00.864Z,101.50
2022-11-07T23:09:32.593Z,95.75
2022-11-07T23:12:58.323Z,93.50
2022-11-07T23:14:30.040Z,90.75
2022-11-07T23:16:01.749Z,86.00
2022-11-07T23:17:33.488Z,90.75
2022-11-07T23:19:07.424Z,91.25
2022-11-07T23:21:11.353Z,88.00
2022-11-07T23:22:43.063Z,82.25
2022-11-07T23:24:14.771Z,81.50
2022-11-07T23:25:46.501Z,82.50
2022-11-07T23:27:18.256Z,77.50
2022-11-07T23:28:50.127Z,82.25
2022-11-07T23:30:24.399Z,82.75
2022-11-07T23:31:56.124Z,69.50
2022-11-07T23:33:27.820Z,69.00
2022-11-07T23:34:59.472Z,78.50
